Time;durP1;ratioP1;P1;durP2;ratioP2;P2;SDS_P1;SDS_P2;PMS_P1;PMS_P2;Temp;Humidity;BMP_temperature;BMP_pressure;BME280_temperature;BME280_humidity;BME280_pressure;Samples;Min_cycle;Max_cycle;Signal;HPM_P1;HPM_P2
2021/04/01 00:00:49;;;;;;;7.43;3.37;;;;;;;3.04;100.00;100724.14;1740766;81;21015;-67
2021/04/01 00:03:19;;;;;;;7.30;3.60;;;;;;;3.03;100.00;100716.61;1735763;82;21556;-68
2021/04/01 00:05:49;;;;;;;7.17;4.30;;;;;;;3.04;100.00;100716.97;1741012;82;20952;-67
2021/04/01 00:08:17;;;;;;;5.10;3.53;;;;;;;3.03;100.00;100715.77;1800364;78;20990;-68
2021/04/01 00:10:47;;;;;;;5.90;2.83;;;;;;;3.02;100.00;100718.05;1820447;78;20942;-68
2021/04/01 00:13:15;;;;;;;5.37;3.20;;;;;;;2.99;100.00;100712.91;1729215;81;21105;-68
2021/04/01 00:15:44;;;;;;;3.60;2.53;;;;;;;2.99;100.00;100708.45;1739965;82;21020;-69
2021/04/01 00:18:16;;;;;;;4.50;2.97;;;;;;;2.97;100.00;100705.48;1731775;80;21020;-68
2021/04/01 00:20:44;;;;;;;5.50;2.37;;;;;;;2.94;100.00;100699.02;1743684;81;21077;-68
2021/04/01 00:23:13;;;;;;;2.80;2.40;;;;;;;2.90;100.00;100697.03;1779046;80;21211;-68
2021/04/01 00:25:41;;;;;;;3.97;1.70;;;;;;;2.84;100.00;100695.64;1720763;80;21064;-68
2021/04/01 00:28:09;;;;;;;5.20;2.63;;;;;;;2.79;100.00;100687.09;1758349;81;20977;-68
2021/04/01 00:30:36;;;;;;;1.37;1.30;;;;;;;2.75;100.00;100691.43;1758428;81;21152;-69
2021/04/01 00:33:05;;;;;;;4.93;2.23;;;;;;;2.69;100.00;100689.16;1758333;81;21012;-69
2021/04/01 00:35:33;;;;;;;1.27;1.20;;;;;;;2.65;100.00;100686.69;1758421;81;21358;-68
2021/04/01 00:38:04;;;;;;;1.30;1.27;;;;;;;2.61;100.00;100685.20;1778208;80;20972;-67
2021/04/01 00:40:33;;;;;;;4.30;2.07;;;;;;;2.59;100.00;100680.94;1779344;80;20936;-68
2021/04/01 00:43:01;;;;;;;4.67;1.63;;;;;;;2.57;100.00;100684.20;1779268;80;21016;-69
2021/04/01 00:45:29;;;;;;;2.83;2.20;;;;;;;2.54;100.00;100681.23;1779280;80;21003;-67
2021/04/01 00:48:00;;;;;;;4.90;2.90;;;;;;;2.54;100.00;100681.73;1780106;80;21190;-68
2021/04/01 00:50:30;;;;;;;11.77;5.57;;;;;;;2.56;100.00;100677.13;1789561;80;21001;-68
2021/04/01 00:52:58;;;;;;;6.43;3.20;;;;;;;2.56;100.00;100676.64;1789628;80;21563;-67
2021/04/01 00:55:27;;;;;;;7.07;3.87;;;;;;;2.58;100.00;100669.87;1789525;80;20950;-69
2021/04/01 00:57:59;;;;;;;1.87;1.77;;;;;;;2.58;100.00;100668.53;1789552;80;21298;-69
2021/04/01 01:00:30;;;;;;;3.77;2.67;;;;;;;2.57;100.00;100669.51;1754867;81;22270;-68
2021/04/01 01:02:58;;;;;;;2.10;1.83;;;;;;;2.57;100.00;100671.69;1741929;81;21597;-68
2021/04/01 01:05:30;;;;;;;3.73;2.93;;;;;;;2.56;100.00;100673.12;1726358;83;21040;-68
2021/04/01 01:07:58;;;;;;;4.87;2.67;;;;;;;2.55;100.00;100671.41;1725383;82;21037;-68
2021/04/01 01:10:29;;;;;;;3.07;2.57;;;;;;;2.50;100.00;100667.73;1695876;84;21001;-68
2021/04/01 01:12:59;;;;;;;3.13;2.37;;;;;;;2.47;100.00;100666.59;1711684;81;21427;-68
2021/04/01 01:15:29;;;;;;;4.47;2.73;;;;;;;2.43;100.00;100663.28;1680330;85;21627;-68
2021/04/01 01:17:57;;;;;;;5.53;2.43;;;;;;;2.40;100.00;100662.62;1740098;81;21029;-67
2021/04/01 01:20:27;;;;;;;4.87;2.53;;;;;;;2.36;100.00;100664.65;1711500;83;20982;-69
2021/04/01 01:23:08;;;;;;;4.70;2.67;;;;;;;2.38;100.00;100657.87;1890108;76;26821;-68
2021/04/01 01:25:36;;;;;;;4.90;3.30;;;;;;;2.35;100.00;100668.75;1849819;77;20934;-69
2021/04/01 01:28:05;;;;;;;4.77;3.20;;;;;;;2.35;100.00;100653.59;1778782;80;21203;-69
2021/04/01 01:30:33;;;;;;;5.73;3.37;;;;;;;2.35;100.00;100661.59;1783114;80;20966;-68
2021/04/01 01:33:04;;;;;;;10.20;4.00;;;;;;;2.36;100.00;100655.31;1778893;80;21364;-69
2021/04/01 01:35:34;;;;;;;8.43;4.23;;;;;;;2.37;100.00;100661.00;1784914;79;21128;-68
2021/04/01 01:38:06;;;;;;;6.93;3.87;;;;;;;2.38;100.00;100653.39;1766330;79;20982;-68
2021/04/01 01:40:35;;;;;;;8.33;4.75;;;;;;;2.39;100.00;100652.89;1772886;80;21368;-68
2021/04/01 01:43:05;;;;;;;5.03;3.23;;;;;;;2.39;100.00;100650.23;1758421;79;21499;-68
2021/04/01 01:45:34;;;;;;;11.77;5.00;;;;;;;2.42;100.00;100651.36;1823155;78;21005;-68
2021/04/01 01:48:02;;;;;;;7.97;3.77;;;;;;;2.45;100.00;100653.84;1821442;78;21531;-68
2021/04/01 01:50:32;;;;;;;8.60;3.03;;;;;;;2.44;100.00;100647.65;1807120;79;20951;-67
2021/04/01 01:53:00;;;;;;;7.47;3.47;;;;;;;2.42;100.00;100648.70;1807137;79;21369;-68
2021/04/01 01:55:30;;;;;;;10.70;4.10;;;;;;;2.38;100.00;100644.05;1806982;79;20989;-68
2021/04/01 01:58:00;;;;;;;7.57;3.57;;;;;;;2.34;100.00;100637.21;1806984;79;20981;-68
2021/04/01 02:00:36;;;;;;;3.10;2.10;;;;;;;2.31;100.00;100639.23;1806989;79;20926;-68
2021/04/01 02:03:06;;;;;;;2.87;2.40;;;;;;;2.27;100.00;100635.43;1807026;79;21323;-68
2021/04/01 02:05:36;;;;;;;4.00;3.33;;;;;;;2.24;100.00;100636.12;1807244;79;22294;-68
2021/04/01 02:08:05;;;;;;;3.23;2.37;;;;;;;2.22;100.00;100632.70;1814257;78;21610;-67
2021/04/01 02:10:36;;;;;;;3.33;2.57;;;;;;;2.20;100.00;100632.80;1823063;78;20880;-67
2021/04/01 02:13:06;;;;;;;4.72;3.05;;;;;;;2.21;100.00;100630.52;1814658;78;20986;-68
2021/04/01 02:15:37;;;;;;;4.10;2.77;;;;;;;2.23;100.00;100627.27;1807188;79;20997;-68
2021/04/01 02:18:13;;;;;;;9.43;4.83;;;;;;;2.25;100.00;100628.50;1807089;79;21392;-68
2021/04/01 02:20:47;;;;;;;9.07;4.90;;;;;;;2.29;100.00;100632.66;1813050;78;21009;-68
2021/04/01 02:23:21;;;;;;;9.67;5.60;;;;;;;2.31;100.00;100629.41;1729952;82;21092;-68
2021/04/01 02:25:51;;;;;;;11.33;3.93;;;;;;;2.32;100.00;100623.58;1753402;81;21070;-68
2021/04/01 02:28:21;;;;;;;6.60;3.40;;;;;;;2.30;100.00;100625.02;1720116;83;21495;-68
2021/04/01 02:30:52;;;;;;;5.87;3.87;;;;;;;2.30;100.00;100626.84;1751568;82;21633;-69
2021/04/01 02:33:23;;;;;;;4.10;3.07;;;;;;;2.27;100.00;100622.09;1719607;83;21010;-68
2021/04/01 02:35:52;;;;;;;4.10;2.87;;;;;;;2.28;100.00;100620.27;1750903;81;21013;-68
2021/04/01 02:38:21;;;;;;;3.47;2.40;;;;;;;2.27;100.00;100620.75;1757035;81;20989;-68
2021/04/01 02:40:50;;;;;;;7.13;2.93;;;;;;;2.26;100.00;100619.52;1757121;81;21013;-68
2021/04/01 02:45:56;;;;;;;13.80;7.67;;;;;;;2.28;100.00;100614.47;1829499;76;27695;-68
2021/04/01 02:48:24;;;;;;;5.13;3.50;;;;;;;2.28;100.00;100607.80;1815263;77;20979;-68
2021/04/01 02:50:54;;;;;;;3.40;2.73;;;;;;;2.35;100.00;100604.70;1815412;78;20937;-68
2021/04/01 02:53:24;;;;;;;5.33;3.63;;;;;;;2.40;100.00;100610.09;1815339;79;20984;-68
2021/04/01 02:55:54;;;;;;;8.00;3.13;;;;;;;2.49;100.00;100603.76;1815442;78;20896;-68
2021/04/01 02:58:23;;;;;;;6.73;4.07;;;;;;;2.56;100.00;100602.38;1815351;79;20983;-68
2021/04/01 03:00:52;;;;;;;6.43;3.77;;;;;;;2.61;100.00;100603.77;1816689;77;21039;-68
2021/04/01 03:05:55;;;;;;;16.52;4.33;;;;;;;2.65;100.00;100605.25;1770940;81;20951;-68
2021/04/01 03:08:24;;;;;;;4.27;3.07;;;;;;;2.63;100.00;100596.50;1792981;79;20984;-68
2021/04/01 03:10:54;;;;;;;7.90;4.77;;;;;;;2.61;100.00;100597.09;1802198;79;20968;-68
2021/04/01 03:13:23;;;;;;;10.77;5.80;;;;;;;2.62;100.00;100596.14;1774774;79;20990;-68
2021/04/01 03:15:51;;;;;;;6.80;3.83;;;;;;;2.64;100.00;100600.05;1706952;84;21386;-69
2021/04/01 03:18:20;;;;;;;4.37;3.73;;;;;;;2.64;100.00;100599.55;1671948;84;21542;-69
2021/04/01 03:20:50;;;;;;;6.50;3.17;;;;;;;2.63;100.00;100599.16;1700278;84;21194;-69
2021/04/01 03:23:19;;;;;;;6.73;3.00;;;;;;;2.60;100.00;100587.39;1727658;83;21153;-68
2021/04/01 03:25:47;;;;;;;3.67;2.73;;;;;;;2.58;100.00;100587.10;1720943;81;21924;-68
2021/04/01 03:28:16;;;;;;;2.87;2.60;;;;;;;2.57;100.00;100591.59;1759664;81;21380;-68
2021/04/01 03:30:49;;;;;;;3.73;3.20;;;;;;;2.58;100.00;100588.44;1759713;81;20965;-68
2021/04/01 03:33:14;;;;;;;9.83;5.77;;;;;;;2.61;100.00;100585.56;1759750;81;21001;-68
2021/04/01 03:35:42;;;;;;;7.87;2.43;;;;;;;2.66;100.00;100587.44;1759699;81;21005;-68
2021/04/01 03:38:13;;;;;;;4.63;2.73;;;;;;;2.69;100.00;100581.86;1716329;81;21034;-69
2021/04/01 03:40:40;;;;;;;6.27;3.27;;;;;;;2.72;100.00;100578.13;1714096;83;21994;-69
2021/04/01 03:43:09;;;;;;;4.03;2.13;;;;;;;2.75;100.00;100576.59;1733937;81;20973;-68
2021/04/01 03:45:39;;;;;;;6.30;4.43;;;;;;;2.78;100.00;100574.56;1755502;81;20929;-68
2021/04/01 03:48:08;;;;;;;6.90;3.60;;;;;;;2.82;100.00;100573.86;1754547;80;20961;-68
2021/04/01 03:50:36;;;;;;;3.80;2.30;;;;;;;2.88;100.00;100574.75;1754733;81;21117;-69
2021/04/01 03:53:05;;;;;;;12.80;5.50;;;;;;;2.94;100.00;100574.79;1754587;81;22647;-68
2021/04/01 03:55:40;;;;;;;8.77;3.73;;;;;;;2.97;100.00;100574.58;1754468;81;21026;-68
2021/04/01 04:00:42;;;;;;;2.77;2.57;;;;;;;3.03;100.00;100580.84;1750307;80;21018;-68
2021/04/01 04:03:31;;;;;;;2.83;2.43;;;;;;;3.04;100.00;100587.38;1754095;81;21246;-68
2021/04/01 04:16:07;;;;;;;5.03;3.45;;;;;;;3.15;100.00;100578.63;1749327;81;21036;-68
2021/04/01 04:18:35;;;;;;;5.47;3.00;;;;;;;3.22;100.00;100566.98;1694518;84;21559;-68
2021/04/01 04:21:05;;;;;;;13.97;7.20;;;;;;;3.27;100.00;100574.20;1709850;83;21010;-68
2021/04/01 04:23:35;;;;;;;6.47;4.17;;;;;;;3.34;100.00;100572.78;1723542;83;21006;-68
2021/04/01 04:26:03;;;;;;;13.60;5.70;;;;;;;3.44;100.00;100568.97;1697747;83;20975;-68
2021/04/01 04:31:08;;;;;;;16.07;6.47;;;;;;;3.69;100.00;100572.02;1829631;76;27763;-67
2021/04/01 04:33:37;;;;;;;10.40;4.23;;;;;;;3.78;100.00;100571.33;1815346;79;21245;-67
2021/04/01 04:36:07;;;;;;;14.90;5.57;;;;;;;3.91;100.00;100565.94;1813185;79;21185;-68
2021/04/01 04:38:36;;;;;;;6.33;2.87;;;;;;;4.03;100.00;100569.49;1783256;80;21817;-68
2021/04/01 04:41:04;;;;;;;5.70;3.37;;;;;;;4.13;100.00;100566.49;1783237;80;21031;-68
2021/04/01 04:43:34;;;;;;;6.33;3.73;;;;;;;4.24;100.00;100572.86;1783220;80;20972;-68
2021/04/01 04:46:05;;;;;;;14.60;4.30;;;;;;;4.34;100.00;100567.17;1783218;80;21243;-68
2021/04/01 04:48:35;;;;;;;6.90;4.23;;;;;;;4.42;100.00;100566.57;1790512;79;21126;-68
2021/04/01 04:51:05;;;;;;;6.23;3.13;;;;;;;4.52;100.00;100559.05;1811591;79;21014;-67
2021/04/01 04:53:33;;;;;;;6.27;3.33;;;;;;;4.64;100.00;100557.70;1811573;78;21585;-68
2021/04/01 04:58:44;;;;;;;6.90;2.83;;;;;;;4.89;100.00;100564.69;1811627;79;21005;-68
2021/04/01 05:01:12;;;;;;;10.33;6.37;;;;;;;5.03;100.00;100564.44;1808956;79;21159;-68
2021/04/01 05:08:53;;;;;;;5.87;4.47;;;;;;;5.56;100.00;100552.16;1776986;79;21251;-67
2021/04/01 05:11:22;;;;;;;5.50;3.73;;;;;;;5.73;100.00;100555.64;1777101;80;20946;-67
2021/04/01 05:13:50;;;;;;;7.43;4.67;;;;;;;5.89;100.00;100553.88;1753102;80;21208;-67
2021/04/01 05:16:18;;;;;;;10.43;6.37;;;;;;;6.05;100.00;100553.47;1745601;82;21008;-67
2021/04/01 05:18:47;;;;;;;8.13;4.67;;;;;;;6.17;100.00;100543.03;1742636;82;20981;-67
2021/04/01 05:21:17;;;;;;;11.10;5.50;;;;;;;6.32;100.00;100543.58;1744791;82;21018;-67
2021/04/01 05:23:49;;;;;;;7.63;5.07;;;;;;;6.45;100.00;100534.81;1746415;82;21044;-67
2021/04/01 05:26:36;;;;;;;8.23;4.50;;;;;;;6.57;100.00;100535.59;1746322;82;21543;-65
2021/04/01 05:31:30;;;;;;;4.33;2.98;;;;;;;6.93;100.00;100535.20;1746673;81;21228;-66
2021/04/01 05:33:58;;;;;;;8.37;5.17;;;;;;;7.13;100.00;100530.73;1699482;84;21201;-65
2021/04/01 05:36:33;;;;;;;7.80;4.43;;;;;;;7.35;100.00;100537.74;1748027;80;20969;-66
2021/04/01 05:39:13;;;;;;;9.20;5.07;;;;;;;7.58;100.00;100525.73;1838372;76;22493;-64
2021/04/01 05:41:42;;;;;;;5.20;3.60;;;;;;;7.68;100.00;100528.42;1788821;79;20964;-65
2021/04/01 05:47:10;;;;;;;8.50;4.83;;;;;;;7.86;100.00;100523.69;1770232;81;21062;-65
2021/04/01 05:49:46;;;;;;;6.80;4.37;;;;;;;7.95;100.00;100520.14;1773371;78;21640;-70
2021/04/01 05:58:22;;;;;;;11.43;5.57;;;;;;;8.46;100.00;100500.61;1748010;81;21257;-67
2021/04/01 06:01:12;;;;;;;20.53;6.40;;;;;;;8.57;100.00;100500.92;1736638;79;21002;-66
2021/04/01 06:03:47;;;;;;;9.97;5.47;;;;;;;8.77;100.00;100501.22;1744276;80;21003;-67
2021/04/01 06:06:13;;;;;;;12.47;4.50;;;;;;;8.95;100.00;100493.70;1746785;81;21037;-68
2021/04/01 06:08:51;;;;;;;6.97;3.90;;;;;;;9.09;100.00;100497.23;1716586;82;20996;-67
2021/04/01 06:11:21;;;;;;;6.30;4.53;;;;;;;9.24;100.00;100493.52;1761441;78;21538;-66
2021/04/01 06:14:14;;;;;;;7.57;4.47;;;;;;;9.41;100.00;100489.16;1754182;79;21017;-68
2021/04/01 06:16:44;;;;;;;12.30;5.33;;;;;;;9.63;100.00;100488.72;1725534;83;21071;-67
2021/04/01 06:19:15;;;;;;;7.37;4.40;;;;;;;9.88;100.00;100487.09;1726781;83;21029;-69
2021/04/01 06:21:48;;;;;;;6.97;4.77;;;;;;;10.06;100.00;100480.81;1764101;81;21000;-67
2021/04/01 06:24:28;;;;;;;5.62;3.77;;;;;;;10.12;100.00;100482.88;1760585;81;22329;-67
2021/04/01 06:27:14;;;;;;;13.15;5.15;;;;;;;10.24;100.00;100478.08;1759452;81;21040;-66
2021/04/01 06:40:44;;;;;;;7.00;4.80;;;;;;;10.89;100.00;100464.59;1711441;82;21215;-69
2021/04/01 06:43:33;;;;;;;7.92;4.65;;;;;;;11.03;100.00;100466.70;1734553;81;21094;-68
2021/04/01 06:46:12;;;;;;;13.43;6.30;;;;;;;11.30;100.00;100472.88;1847871;76;23436;-66
2021/04/01 06:51:19;;;;;;;7.50;5.08;;;;;;;11.57;100.00;100473.09;1742768;81;22253;-67
2021/04/01 06:54:14;;;;;;;5.70;4.05;;;;;;;11.68;100.00;100462.44;1747698;81;20947;-67
2021/04/01 07:00:04;;;;;;;5.08;3.75;;;;;;;11.92;100.00;100452.99;1673075;84;21114;-68
2021/04/01 07:02:37;;;;;;;8.93;4.22;;;;;;;12.01;100.00;100455.72;1684537;83;21077;-67
2021/04/01 07:05:22;;;;;;;7.90;4.22;;;;;;;12.10;100.00;100455.52;1689530;84;21295;-67
2021/04/01 07:08:02;;;;;;;9.37;4.97;;;;;;;12.28;100.00;100449.06;1858538;76;22792;-67
2021/04/01 07:13:35;;;;;;;8.08;4.90;;;;;;;12.52;100.00;100452.23;1829200;77;21200;-67
2021/04/01 07:16:23;;;;;;;6.17;3.65;;;;;;;12.52;100.00;100445.45;1783955;78;21044;-68
2021/04/01 07:34:56;;;;;;;9.18;5.15;;;;;;;13.24;100.00;100434.45;1749091;80;21649;-67
2021/04/01 07:48:58;;;;;;;7.37;4.25;;;;;;;14.27;100.00;100401.52;1804905;79;21068;-68
2021/04/01 07:54:03;;;;;;;9.48;4.97;;;;;;;14.67;100.00;100399.41;1784111;79;20984;-67
2021/04/01 07:56:41;;;;;;;7.92;4.20;;;;;;;14.81;100.00;100392.56;1729721;82;21365;-68
2021/04/01 07:59:28;;;;;;;10.38;5.00;;;;;;;14.79;100.00;100391.92;1759783;81;21060;-65
2021/04/01 08:04:27;;;;;;;4.78;3.15;;;;;;;14.76;100.00;100380.57;1737141;81;21033;-67
2021/04/01 08:07:13;;;;;;;5.60;3.50;;;;;;;14.74;100.00;100373.11;1739390;81;21024;-69
2021/04/01 08:09:46;;;;;;;13.68;3.52;;;;;;;14.70;100.00;100370.45;1754408;79;22039;-68
2021/04/01 08:12:27;;;;;;;6.92;4.35;;;;;;;14.68;100.00;100367.92;1759290;79;21590;-66
2021/04/01 08:15:21;;;;;;;8.28;3.37;;;;;;;14.57;100.00;100372.44;1758331;80;21171;-68
2021/04/01 08:17:57;;;;;;;6.30;3.50;;;;;;;14.67;100.00;100353.97;1761417;80;20989;-66
2021/04/01 08:40:23;;;;;;;4.77;3.23;;;;;;;16.94;100.00;100329.86;1838191;76;26837;-69
2021/04/01 08:42:59;;;;;;;5.75;2.52;;;;;;;17.02;100.00;100325.59;1742611;81;21290;-67
2021/04/01 08:45:48;;;;;;;2.98;2.50;;;;;;;16.83;100.00;100330.44;1733730;82;21389;-73
2021/04/01 08:48:43;;;;;;;3.80;2.72;;;;;;;16.66;100.00;100328.58;1752733;81;21082;-70
2021/04/01 08:51:40;;;;;;;6.87;3.85;;;;;;;16.32;100.00;100325.72;1763216;81;21092;-69
2021/04/01 08:54:24;;;;;;;3.60;2.65;;;;;;;15.92;100.00;100319.17;1759311;81;20978;-70
2021/04/01 08:57:12;;;;;;;5.00;3.10;;;;;;;16.03;100.00;100315.88;1761272;80;21273;-68
2021/04/01 09:00:12;;;;;;;3.70;2.35;;;;;;;16.21;100.00;100313.99;1686201;84;21116;-68
2021/04/01 09:02:49;;;;;;;5.53;2.62;;;;;;;16.24;100.00;100323.14;1705958;83;20965;-69
2021/04/01 09:05:19;;;;;;;3.80;2.70;;;;;;;16.44;100.00;100306.86;1655520;86;21694;-76
2021/04/01 09:07:56;;;;;;;5.40;2.70;;;;;;;16.58;100.00;100305.04;1700250;82;21060;-77
2021/04/01 09:13:15;;;;;;;4.47;2.50;;;;;;;16.84;100.00;100298.86;1831943;76;23812;-73
2021/04/01 09:18:31;;;;;;;4.05;2.40;;;;;;;16.79;100.00;100290.95;1821053;77;21402;-76
2021/04/01 09:21:03;;;;;;;5.58;2.67;;;;;;;16.98;100.00;100281.98;1823719;77;21057;-80
2021/04/01 09:23:42;;;;;;;4.30;2.92;;;;;;;17.08;100.00;100275.56;1826593;77;21459;-78
2021/04/01 09:26:12;;;;;;;5.62;3.12;;;;;;;17.25;98.34;100276.02;1826734;77;21589;-76
2021/04/01 09:28:43;;;;;;;4.53;2.45;;;;;;;17.31;93.69;100263.41;1831061;77;21038;-76
2021/04/01 09:31:13;;;;;;;3.42;2.30;;;;;;;17.36;93.91;100264.98;1834616;77;21328;-76
2021/04/01 09:33:41;;;;;;;5.65;3.33;;;;;;;17.40;91.17;100253.94;1831774;77;20997;-75
2021/04/01 09:36:18;;;;;;;4.75;3.47;;;;;;;17.19;89.51;100259.11;1824601;77;21039;-77
2021/04/01 09:38:55;;;;;;;3.10;2.75;;;;;;;16.92;91.67;100258.22;1830597;77;21005;-76
2021/04/01 09:41:34;;;;;;;3.02;2.33;;;;;;;17.12;98.77;100254.14;1830137;77;20986;-77
2021/04/01 09:44:07;;;;;;;6.37;4.20;;;;;;;17.52;93.35;100250.05;1801897;77;21277;-77
2021/04/01 09:46:36;;;;;;;9.08;4.37;;;;;;;17.57;88.14;100246.69;1827195;77;21058;-77
2021/04/01 09:49:08;;;;;;;3.77;2.72;;;;;;;17.53;87.00;100239.95;1828057;77;20938;-79
2021/04/01 09:51:36;;;;;;;2.12;1.77;;;;;;;17.51;88.90;100239.32;1779478;77;21143;-75
2021/04/01 09:54:05;;;;;;;3.35;3.05;;;;;;;17.67;89.99;100233.94;1805790;78;20997;-78
2021/04/01 09:56:33;;;;;;;8.20;3.30;;;;;;;17.89;85.18;100228.56;1831547;77;21538;-78
2021/04/01 09:59:01;;;;;;;4.70;3.37;;;;;;;17.82;81.04;100229.91;1789408;77;21172;-78
2021/04/01 10:01:30;;;;;;;2.87;2.25;;;;;;;17.73;80.93;100224.36;1805761;77;21001;-75
2021/04/01 10:04:21;;;;;;;3.92;2.95;;;;;;;17.70;81.40;100222.05;1830105;77;21000;-78
2021/04/01 10:06:50;;;;;;;3.60;2.55;;;;;;;17.83;82.20;100211.09;1826766;77;20974;-81
2021/04/01 10:09:21;;;;;;;4.60;3.08;;;;;;;17.73;81.62;100210.69;1822219;78;22365;-77
2021/04/01 10:12:08;;;;;;;3.87;2.50;;;;;;;17.82;84.39;100208.56;1835620;77;20951;-79
2021/04/01 10:14:37;;;;;;;3.20;2.40;;;;;;;18.08;85.08;100205.45;1831431;77;21155;-74
2021/04/01 10:17:10;;;;;;;3.05;2.50;;;;;;;18.36;79.80;100199.13;1780331;78;20996;-76
2021/04/01 10:19:53;;;;;;;3.42;2.25;;;;;;;18.44;78.71;100190.35;1822517;78;21507;-77
2021/04/01 10:22:28;;;;;;;3.00;2.50;;;;;;;18.47;77.28;100200.84;1822376;77;21211;-77
2021/04/01 10:25:14;;;;;;;1.70;1.60;;;;;;;18.25;74.57;100196.23;1822123;77;20947;-79
2021/04/01 10:30:18;;;;;;;3.30;2.45;;;;;;;18.13;77.18;100183.24;1827535;77;21035;-78
2021/04/01 10:33:18;;;;;;;5.00;3.20;;;;;;;18.23;76.92;100181.39;1832189;77;21026;-76
2021/04/01 10:35:55;;;;;;;4.95;3.50;;;;;;;18.30;76.54;100173.16;1755855;81;21254;-78
2021/04/01 10:38:28;;;;;;;3.85;2.67;;;;;;;18.49;75.75;100169.47;1747291;81;21181;-66
2021/04/01 10:41:06;;;;;;;3.70;2.65;;;;;;;18.64;71.85;100164.20;1744571;81;21033;-67
2021/04/01 10:43:33;;;;;;;4.83;2.70;;;;;;;18.85;75.34;100161.12;1750574;81;21053;-67
2021/04/01 10:46:01;;;;;;;3.33;2.42;;;;;;;19.27;67.79;100157.30;1750475;81;20986;-65
2021/04/01 10:48:33;;;;;;;4.92;3.42;;;;;;;19.46;55.63;100148.58;1746894;80;21363;-65
2021/04/01 10:51:07;;;;;;;3.45;2.65;;;;;;;19.12;51.17;100146.70;1745783;81;20993;-66
2021/04/01 10:53:42;;;;;;;2.77;1.92;;;;;;;18.86;54.04;100146.38;1739148;81;21032;-67
2021/04/01 10:56:12;;;;;;;4.08;2.70;;;;;;;18.74;57.54;100142.66;1725142;83;21029;-67
2021/04/01 10:58:56;;;;;;;3.37;2.40;;;;;;;18.68;54.97;100147.62;1725493;83;20925;-66
2021/04/01 11:01:39;;;;;;;3.17;2.70;;;;;;;18.66;55.07;100144.28;1747160;81;21145;-67
2021/04/01 11:04:16;;;;;;;3.08;2.70;;;;;;;18.64;56.67;100134.91;1841857;77;28068;-67
2021/04/01 11:06:45;;;;;;;5.70;3.25;;;;;;;18.51;55.42;100127.64;1821815;78;21387;-67
2021/04/01 11:09:15;;;;;;;4.03;2.55;;;;;;;18.45;58.67;100125.80;1821821;77;21675;-66
2021/04/01 11:14:56;;;;;;;4.80;2.62;;;;;;;18.03;66.40;100122.13;1823044;77;28131;-75
2021/04/01 11:17:25;;;;;;;3.75;2.55;;;;;;;18.03;66.40;100122.13;1790857;79;20990;-68
2021/04/01 11:19:55;;;;;;;3.52;2.72;;;;;;;17.93;67.81;100110.81;1788822;79;21332;-78
2021/04/01 11:22:26;;;;;;;5.35;2.80;;;;;;;17.95;70.37;100108.69;1793511;79;20955;-74
2021/04/01 11:24:54;;;;;;;2.55;2.15;;;;;;;18.19;72.79;100104.91;1801340;78;21069;-76
2021/04/01 11:27:23;;;;;;;3.20;2.45;;;;;;;18.36;69.71;100099.73;1793321;79;20971;-77
2021/04/01 11:29:58;;;;;;;2.45;2.08;;;;;;;18.47;67.55;100102.28;1792369;79;20883;-75
2021/04/01 11:32:29;;;;;;;2.65;2.33;;;;;;;18.45;65.80;100098.93;1791030;78;21867;-75
2021/04/01 11:35:00;;;;;;;3.55;2.17;;;;;;;18.29;65.53;100094.83;1794067;79;21145;-76
2021/04/01 11:37:36;;;;;;;6.53;2.52;;;;;;;18.24;66.14;100101.48;1795124;79;21047;-75
2021/04/01 11:40:07;;;;;;;4.08;2.58;;;;;;;18.23;67.43;100091.08;1792927;79;20987;-74
2021/04/01 11:42:35;;;;;;;2.58;2.37;;;;;;;18.18;69.17;100086.79;1757049;80;21172;-76
2021/04/01 11:45:06;;;;;;;2.95;2.17;;;;;;;18.19;70.74;100079.73;1722680;82;21400;-76
2021/04/01 11:47:39;;;;;;;4.15;2.42;;;;;;;18.12;69.80;100075.38;1727579;82;21069;-77
2021/04/01 11:50:11;;;;;;;5.47;2.90;;;;;;;17.94;69.89;100059.70;1723185;82;20974;-76
2021/04/01 11:52:39;;;;;;;3.17;2.05;;;;;;;17.84;71.67;100062.32;1647428;83;20994;-75
2021/04/01 11:55:12;;;;;;;3.27;2.58;;;;;;;17.84;71.03;100059.59;1730036;82;21022;-76
2021/04/01 11:57:45;;;;;;;;;;;;;;;17.72;71.41;100057.23;1698813;82;21209;-75
2021/04/01 12:00:23;;;;;;;7.40;3.65;;;;;;;17.61;64.25;100046.98;1726310;82;20233;-77
2021/04/01 12:03:04;;;;;;;3.17;2.40;;;;;;;17.69;64.15;100042.64;1833127;76;26549;-78
2021/04/01 12:05:32;;;;;;;1.72;1.47;;;;;;;17.74;59.63;100043.34;1723369;80;21053;-75
2021/04/01 12:08:00;;;;;;;2.98;2.45;;;;;;;17.48;60.69;100041.59;1688753;83;22119;-75
2021/04/01 12:10:28;;;;;;;3.20;2.25;;;;;;;17.36;55.79;100038.14;1703222;80;21630;-75
2021/04/01 12:12:57;;;;;;;3.10;2.17;;;;;;;17.18;54.08;100039.37;1711954;80;21609;-74
2021/04/01 12:15:38;;;;;;;2.67;1.82;;;;;;;17.16;52.89;100042.84;1712615;83;21478;-75
2021/04/01 12:18:08;;;;;;;2.62;2.02;;;;;;;17.14;53.23;100033.50;1721304;82;20953;-74
2021/04/01 12:20:38;;;;;;;5.75;2.98;;;;;;;17.18;55.08;100029.80;1714754;83;21213;-76
2021/04/01 12:23:13;;;;;;;4.37;2.35;;;;;;;17.09;59.08;100025.09;1714125;82;21057;-75
2021/04/01 12:25:48;;;;;;;3.30;2.33;;;;;;;17.02;62.57;100022.91;1863376;76;26048;-75
2021/04/01 12:28:22;;;;;;;5.45;3.00;;;;;;;16.87;59.67;100026.73;1839426;77;21576;-75
2021/04/01 12:30:57;;;;;;;4.83;2.67;;;;;;;16.92;60.07;100019.24;1824062;77;28648;-75
2021/04/01 12:33:28;;;;;;;4.47;2.77;;;;;;;16.78;59.48;100014.83;1802824;78;21599;-75
2021/04/01 12:35:59;;;;;;;2.77;1.65;;;;;;;16.69;59.01;100012.84;1794747;78;21193;-76
2021/04/01 12:38:39;;;;;;;3.17;2.20;;;;;;;16.67;57.75;100016.31;1794233;78;21010;-75
2021/04/01 12:41:11;;;;;;;4.55;2.62;;;;;;;16.61;57.09;100004.36;1792877;78;20998;-73
2021/04/01 12:43:42;;;;;;;2.30;1.92;;;;;;;16.52;59.63;100008.36;1729470;82;21115;-76
2021/04/01 12:46:10;;;;;;;4.70;3.17;;;;;;;16.45;59.77;100006.13;1720834;81;21577;-75
2021/04/01 12:51:20;;;;;;;2.13;1.83;;;;;;;16.41;61.38;99998.06;1864604;76;25553;-73
2021/04/01 12:56:41;;;;;;;4.53;2.97;;;;;;;16.33;61.08;99985.48;1865820;76;23624;-73
2021/04/01 12:59:21;;;;;;;7.58;2.80;;;;;;;16.20;59.63;99990.42;1832030;77;20921;-76
2021/04/01 13:04:21;;;;;;;3.10;2.30;;;;;;;16.16;63.15;99980.13;1831945;77;21013;-76
2021/04/01 13:09:39;;;;;;;4.28;2.20;;;;;;;16.22;63.51;99976.03;1836199;77;21017;-73
2021/04/01 13:12:18;;;;;;;5.10;3.12;;;;;;;16.21;64.08;99972.98;1836339;77;21013;-73
2021/04/01 13:14:47;;;;;;;2.42;2.27;;;;;;;16.19;64.86;99961.98;1832704;77;21260;-73
2021/04/01 13:17:17;;;;;;;7.12;3.52;;;;;;;16.14;65.12;99962.59;1837983;77;21480;-68
2021/04/01 13:19:45;;;;;;;4.28;2.33;;;;;;;16.06;65.58;99957.33;1835816;77;20962;-67
2021/04/01 13:22:26;;;;;;;7.72;3.58;;;;;;;15.93;66.60;99952.19;1828854;77;20929;-66
2021/04/01 13:27:24;;;;;;;2.95;1.72;;;;;;;15.90;66.29;99947.67;1838925;77;21346;-66
2021/04/01 13:29:54;;;;;;;3.65;2.87;;;;;;;15.89;66.83;99944.11;1813625;78;21476;-69
2021/04/01 13:34:59;;;;;;;4.40;2.50;;;;;;;15.86;67.25;99935.52;1833643;77;21028;-67
2021/04/01 13:37:30;;;;;;;3.58;2.42;;;;;;;15.84;64.91;99934.35;1829246;77;21498;-67
2021/04/01 13:40:02;;;;;;;4.20;2.27;;;;;;;15.78;65.73;99929.75;1824490;78;21532;-68
2021/04/01 13:42:27;;;;;;;4.05;2.47;;;;;;;15.80;68.05;99922.73;1824198;78;20976;-70
2021/04/01 13:45:08;;;;;;;6.80;2.75;;;;;;;15.79;66.50;99921.87;1827171;78;21000;-68
2021/04/01 13:47:30;;;;;;;3.62;2.10;;;;;;;15.77;67.13;99923.97;1846737;77;20969;-68
2021/04/01 13:49:59;;;;;;;2.27;2.08;;;;;;;15.79;66.59;99918.31;1827874;77;21467;-71
2021/04/01 14:09:32;;;;;;;6.05;2.83;;;;;;;15.69;68.65;99886.00;1773392;80;21064;-70
2021/04/01 14:12:04;;;;;;;5.65;2.80;;;;;;;15.74;69.57;99875.28;1773390;80;21010;-68
2021/04/01 14:14:40;;;;;;;3.43;2.97;;;;;;;15.81;67.93;99877.55;1880046;76;23609;-69
2021/04/01 14:17:08;;;;;;;3.77;2.83;;;;;;;15.78;68.89;99881.22;1782742;80;20973;-76
2021/04/01 14:19:36;;;;;;;6.78;3.15;;;;;;;15.86;70.32;99879.09;1814768;78;21154;-76
2021/04/01 14:22:05;;;;;;;4.28;3.70;;;;;;;15.99;69.43;99871.45;1762209;80;20997;-76
2021/04/01 14:24:52;;;;;;;3.05;2.62;;;;;;;16.08;68.71;99870.72;1760415;80;21048;-79